sensor_id;sensor_type;location;lat;lon;timestamp;P1;durP1;ratioP1;P2;durP2;ratioP2
71038;SDS011;58692;43.212;27.908;2022-09-21T00:00:49;9.63;;;4.10;;
71038;SDS011;58692;43.212;27.908;2022-09-21T00:03:15;9.50;;;4.00;;
71038;SDS011;58692;43.212;27.908;2022-09-21T00:05:41;9.30;;;4.03;;
71038;SDS011;58692;43.212;27.908;2022-09-21T00:08:07;7.70;;;3.65;;
71038;SDS011;58692;43.212;27.908;2022-09-21T00:10:34;9.13;;;3.60;;
71038;SDS011;58692;43.212;27.908;2022-09-21T00:13:00;9.80;;;3.90;;
71038;SDS011;58692;43.212;27.908;2022-09-21T00:15:27;17.27;;;5.30;;
71038;SDS011;58692;43.212;27.908;2022-09-21T00:17:55;8.70;;;4.20;;
71038;SDS011;58692;43.212;27.908;2022-09-21T00:20:22;8.23;;;3.92;;
71038;SDS011;58692;43.212;27.908;2022-09-21T00:22:49;9.57;;;3.88;;
71038;SDS011;58692;43.212;27.908;2022-09-21T00:25:15;9.43;;;4.00;;
71038;SDS011;58692;43.212;27.908;2022-09-21T00:27:40;8.60;;;4.20;;
71038;SDS011;58692;43.212;27.908;2022-09-21T00:30:06;12.32;;;4.15;;
71038;SDS011;58692;43.212;27.908;2022-09-21T00:32:33;8.23;;;3.60;;
71038;SDS011;58692;43.212;27.908;2022-09-21T00:35:00;8.38;;;4.25;;
71038;SDS011;58692;43.212;27.908;2022-09-21T00:37:27;8.38;;;3.63;;
71038;SDS011;58692;43.212;27.908;2022-09-21T00:39:53;7.80;;;3.80;;
71038;SDS011;58692;43.212;27.908;2022-09-21T00:44:54;8.47;;;3.67;;
71038;SDS011;58692;43.212;27.908;2022-09-21T00:47:21;7.50;;;3.28;;
71038;SDS011;58692;43.212;27.908;2022-09-21T00:50:05;7.82;;;3.70;;
71038;SDS011;58692;43.212;27.908;2022-09-21T00:52:36;10.00;;;3.30;;
71038;SDS011;58692;43.212;27.908;2022-09-21T00:55:10;10.60;;;3.80;;
71038;SDS011;58692;43.212;27.908;2022-09-21T00:57:42;9.95;;;3.65;;
71038;SDS011;58692;43.212;27.908;2022-09-21T01:00:10;10.35;;;3.70;;
71038;SDS011;58692;43.212;27.908;2022-09-21T01:02:36;7.20;;;3.30;;
71038;SDS011;58692;43.212;27.908;2022-09-21T01:05:03;10.48;;;3.42;;
71038;SDS011;58692;43.212;27.908;2022-09-21T01:07:30;11.07;;;3.63;;
71038;SDS011;58692;43.212;27.908;2022-09-21T01:10:00;9.63;;;3.80;;
71038;SDS011;58692;43.212;27.908;2022-09-21T01:25:37;10.57;;;4.70;;
71038;SDS011;58692;43.212;27.908;2022-09-21T01:28:23;10.83;;;5.07;;
71038;SDS011;58692;43.212;27.908;2022-09-21T01:31:10;11.40;;;4.90;;
71038;SDS011;58692;43.212;27.908;2022-09-21T01:33:43;11.48;;;5.40;;
71038;SDS011;58692;43.212;27.908;2022-09-21T01:36:13;11.75;;;5.40;;
71038;SDS011;58692;43.212;27.908;2022-09-21T01:38:44;14.90;;;6.78;;
71038;SDS011;58692;43.212;27.908;2022-09-21T01:41:14;16.83;;;7.57;;
71038;SDS011;58692;43.212;27.908;2022-09-21T01:43:45;14.20;;;8.93;;
71038;SDS011;58692;43.212;27.908;2022-09-21T01:46:16;15.35;;;9.45;;
71038;SDS011;58692;43.212;27.908;2022-09-21T01:48:46;16.85;;;8.85;;
71038;SDS011;58692;43.212;27.908;2022-09-21T01:51:16;12.30;;;6.78;;
71038;SDS011;58692;43.212;27.908;2022-09-21T01:53:50;10.57;;;5.77;;
71038;SDS011;58692;43.212;27.908;2022-09-21T01:56:20;11.73;;;5.93;;
71038;SDS011;58692;43.212;27.908;2022-09-21T02:01:36;9.32;;;5.25;;
71038;SDS011;58692;43.212;27.908;2022-09-21T02:04:08;10.27;;;5.05;;
71038;SDS011;58692;43.212;27.908;2022-09-21T02:06:37;8.33;;;4.53;;
71038;SDS011;58692;43.212;27.908;2022-09-21T02:09:06;12.90;;;4.95;;
71038;SDS011;58692;43.212;27.908;2022-09-21T02:11:33;10.27;;;5.35;;
71038;SDS011;58692;43.212;27.908;2022-09-21T02:14:09;12.35;;;5.78;;
71038;SDS011;58692;43.212;27.908;2022-09-21T02:19:24;12.03;;;4.60;;
71038;SDS011;58692;43.212;27.908;2022-09-21T02:22:12;12.32;;;5.90;;
71038;SDS011;58692;43.212;27.908;2022-09-21T02:27:44;12.88;;;6.20;;
71038;SDS011;58692;43.212;27.908;2022-09-21T02:30:17;15.43;;;6.25;;
71038;SDS011;58692;43.212;27.908;2022-09-21T02:35:34;11.10;;;6.00;;
71038;SDS011;58692;43.212;27.908;2022-09-21T02:38:14;14.88;;;6.50;;
71038;SDS011;58692;43.212;27.908;2022-09-21T02:40:46;12.43;;;6.15;;
71038;SDS011;58692;43.212;27.908;2022-09-21T02:43:26;11.85;;;5.65;;
71038;SDS011;58692;43.212;27.908;2022-09-21T02:46:02;12.73;;;5.77;;
71038;SDS011;58692;43.212;27.908;2022-09-21T02:48:34;10.80;;;5.15;;
71038;SDS011;58692;43.212;27.908;2022-09-21T02:51:06;10.77;;;5.30;;
71038;SDS011;58692;43.212;27.908;2022-09-21T02:53:35;12.20;;;5.80;;
71038;SDS011;58692;43.212;27.908;2022-09-21T02:56:04;12.35;;;5.57;;
71038;SDS011;58692;43.212;27.908;2022-09-21T02:58:33;11.87;;;5.67;;
71038;SDS011;58692;43.212;27.908;2022-09-21T03:01:01;10.15;;;5.60;;
71038;SDS011;58692;43.212;27.908;2022-09-21T03:03:32;11.30;;;5.95;;
71038;SDS011;58692;43.212;27.908;2022-09-21T03:05:58;12.98;;;6.30;;
71038;SDS011;58692;43.212;27.908;2022-09-21T03:08:26;11.20;;;5.63;;
71038;SDS011;58692;43.212;27.908;2022-09-21T03:10:51;12.50;;;5.73;;
71038;SDS011;58692;43.212;27.908;2022-09-21T03:13:18;12.35;;;5.75;;
71038;SDS011;58692;43.212;27.908;2022-09-21T03:15:43;10.93;;;5.40;;
71038;SDS011;58692;43.212;27.908;2022-09-21T03:18:10;11.50;;;5.63;;
71038;SDS011;58692;43.212;27.908;2022-09-21T03:20:37;11.30;;;5.32;;
71038;SDS011;58692;43.212;27.908;2022-09-21T03:23:04;10.07;;;5.28;;
71038;SDS011;58692;43.212;27.908;2022-09-21T03:25:31;10.48;;;5.20;;
71038;SDS011;58692;43.212;27.908;2022-09-21T03:27:57;10.27;;;5.20;;
71038;SDS011;58692;43.212;27.908;2022-09-21T03:30:24;11.63;;;5.22;;
71038;SDS011;58692;43.212;27.908;2022-09-21T03:32:51;12.10;;;5.15;;
71038;SDS011;58692;43.212;27.908;2022-09-21T03:35:18;13.98;;;5.85;;
71038;SDS011;58692;43.212;27.908;2022-09-21T03:37:46;13.77;;;5.68;;
71038;SDS011;58692;43.212;27.908;2022-09-21T03:40:13;9.73;;;5.33;;
71038;SDS011;58692;43.212;27.908;2022-09-21T03:42:40;12.55;;;5.30;;
71038;SDS011;58692;43.212;27.908;2022-09-21T03:45:06;11.32;;;4.75;;
71038;SDS011;58692;43.212;27.908;2022-09-21T03:47:34;12.50;;;5.28;;
71038;SDS011;58692;43.212;27.908;2022-09-21T03:50:00;9.23;;;4.80;;
71038;SDS011;58692;43.212;27.908;2022-09-21T03:52:26;10.63;;;4.90;;
71038;SDS011;58692;43.212;27.908;2022-09-21T03:54:52;10.10;;;5.05;;
71038;SDS011;58692;43.212;27.908;2022-09-21T03:57:19;14.13;;;5.27;;
71038;SDS011;58692;43.212;27.908;2022-09-21T03:59:44;9.13;;;4.82;;
71038;SDS011;58692;43.212;27.908;2022-09-21T04:02:10;10.07;;;4.80;;
71038;SDS011;58692;43.212;27.908;2022-09-21T04:04:35;8.70;;;4.67;;
71038;SDS011;58692;43.212;27.908;2022-09-21T04:07:01;9.88;;;4.90;;
71038;SDS011;58692;43.212;27.908;2022-09-21T04:09:27;11.02;;;5.07;;
71038;SDS011;58692;43.212;27.908;2022-09-21T04:11:52;11.67;;;4.93;;
71038;SDS011;58692;43.212;27.908;2022-09-21T04:14:18;12.10;;;4.77;;
71038;SDS011;58692;43.212;27.908;2022-09-21T04:16:45;8.63;;;4.50;;
71038;SDS011;58692;43.212;27.908;2022-09-21T04:19:10;12.88;;;5.28;;
71038;SDS011;58692;43.212;27.908;2022-09-21T04:21:42;9.75;;;4.70;;
71038;SDS011;58692;43.212;27.908;2022-09-21T04:24:26;8.27;;;4.82;;
71038;SDS011;58692;43.212;27.908;2022-09-21T04:26:52;12.27;;;5.07;;
71038;SDS011;58692;43.212;27.908;2022-09-21T04:29:17;11.82;;;4.68;;
71038;SDS011;58692;43.212;27.908;2022-09-21T04:31:43;11.73;;;5.05;;
71038;SDS011;58692;43.212;27.908;2022-09-21T04:34:12;10.53;;;4.70;;
71038;SDS011;58692;43.212;27.908;2022-09-21T04:36:41;10.68;;;4.72;;
71038;SDS011;58692;43.212;27.908;2022-09-21T04:39:07;10.60;;;4.75;;
71038;SDS011;58692;43.212;27.908;2022-09-21T04:41:33;8.77;;;4.87;;
71038;SDS011;58692;43.212;27.908;2022-09-21T04:43:58;11.43;;;5.00;;
71038;SDS011;58692;43.212;27.908;2022-09-21T04:46:25;9.43;;;4.40;;
71038;SDS011;58692;43.212;27.908;2022-09-21T04:48:50;10.00;;;4.80;;
71038;SDS011;58692;43.212;27.908;2022-09-21T04:51:16;18.57;;;5.77;;
71038;SDS011;58692;43.212;27.908;2022-09-21T04:53:42;14.25;;;4.70;;
71038;SDS011;58692;43.212;27.908;2022-09-21T04:56:09;15.87;;;4.60;;
71038;SDS011;58692;43.212;27.908;2022-09-21T04:58:37;19.75;;;5.10;;
71038;SDS011;58692;43.212;27.908;2022-09-21T05:01:04;10.85;;;4.50;;
71038;SDS011;58692;43.212;27.908;2022-09-21T05:03:31;9.85;;;4.70;;
71038;SDS011;58692;43.212;27.908;2022-09-21T05:05:58;8.45;;;4.35;;
71038;SDS011;58692;43.212;27.908;2022-09-21T05:08:30;11.70;;;4.53;;
71038;SDS011;58692;43.212;27.908;2022-09-21T05:11:28;11.63;;;4.25;;
71038;SDS011;58692;43.212;27.908;2022-09-21T05:14:01;9.73;;;4.85;;
71038;SDS011;58692;43.212;27.908;2022-09-21T05:16:26;10.95;;;4.68;;
71038;SDS011;58692;43.212;27.908;2022-09-21T05:18:55;12.90;;;4.60;;
71038;SDS011;58692;43.212;27.908;2022-09-21T05:21:23;12.35;;;4.82;;
71038;SDS011;58692;43.212;27.908;2022-09-21T05:23:49;13.00;;;5.22;;
71038;SDS011;58692;43.212;27.908;2022-09-21T05:26:15;14.63;;;5.23;;
71038;SDS011;58692;43.212;27.908;2022-09-21T05:28:41;9.20;;;4.53;;
71038;SDS011;58692;43.212;27.908;2022-09-21T05:36:47;9.40;;;4.57;;
71038;SDS011;58692;43.212;27.908;2022-09-21T05:39:29;10.18;;;4.38;;
71038;SDS011;58692;43.212;27.908;2022-09-21T05:41:55;8.90;;;4.10;;
71038;SDS011;58692;43.212;27.908;2022-09-21T05:44:21;10.80;;;4.25;;
71038;SDS011;58692;43.212;27.908;2022-09-21T05:46:49;10.83;;;4.17;;
71038;SDS011;58692;43.212;27.908;2022-09-21T05:49:45;12.60;;;3.97;;
71038;SDS011;58692;43.212;27.908;2022-09-21T05:55:00;7.40;;;3.67;;
71038;SDS011;58692;43.212;27.908;2022-09-21T06:00:22;9.10;;;4.07;;
71038;SDS011;58692;43.212;27.908;2022-09-21T06:05:24;9.55;;;3.95;;
71038;SDS011;58692;43.212;27.908;2022-09-21T06:07:49;7.25;;;3.42;;
71038;SDS011;58692;43.212;27.908;2022-09-21T06:10:16;7.37;;;3.50;;
71038;SDS011;58692;43.212;27.908;2022-09-21T06:12:42;6.10;;;2.90;;
71038;SDS011;58692;43.212;27.908;2022-09-21T06:15:10;6.65;;;2.88;;
71038;SDS011;58692;43.212;27.908;2022-09-21T06:17:37;8.57;;;2.87;;
71038;SDS011;58692;43.212;27.908;2022-09-21T06:20:03;7.00;;;2.80;;
71038;SDS011;58692;43.212;27.908;2022-09-21T06:22:31;12.75;;;2.92;;
71038;SDS011;58692;43.212;27.908;2022-09-21T06:24:57;5.13;;;2.58;;
71038;SDS011;58692;43.212;27.908;2022-09-21T06:27:22;5.97;;;2.70;;
71038;SDS011;58692;43.212;27.908;2022-09-21T06:29:48;13.52;;;3.00;;
71038;SDS011;58692;43.212;27.908;2022-09-21T06:32:13;7.17;;;3.20;;
71038;SDS011;58692;43.212;27.908;2022-09-21T06:34:39;8.37;;;2.63;;
71038;SDS011;58692;43.212;27.908;2022-09-21T06:37:06;8.80;;;2.80;;
71038;SDS011;58692;43.212;27.908;2022-09-21T06:39:32;8.80;;;2.60;;
71038;SDS011;58692;43.212;27.908;2022-09-21T06:41:58;6.80;;;2.60;;
71038;SDS011;58692;43.212;27.908;2022-09-21T06:44:24;6.50;;;2.90;;
71038;SDS011;58692;43.212;27.908;2022-09-21T06:46:49;8.33;;;2.87;;
71038;SDS011;58692;43.212;27.908;2022-09-21T06:49:15;8.15;;;2.60;;
71038;SDS011;58692;43.212;27.908;2022-09-21T06:51:41;7.35;;;2.50;;
71038;SDS011;58692;43.212;27.908;2022-09-21T06:54:07;7.00;;;2.60;;
71038;SDS011;58692;43.212;27.908;2022-09-21T06:56:33;5.93;;;2.53;;
71038;SDS011;58692;43.212;27.908;2022-09-21T06:58:59;8.05;;;2.28;;
71038;SDS011;58692;43.212;27.908;2022-09-21T07:01:25;10.10;;;2.37;;
71038;SDS011;58692;43.212;27.908;2022-09-21T07:03:51;6.03;;;2.13;;
71038;SDS011;58692;43.212;27.908;2022-09-21T07:06:18;7.32;;;2.55;;
71038;SDS011;58692;43.212;27.908;2022-09-21T07:08:50;9.18;;;2.75;;
71038;SDS011;58692;43.212;27.908;2022-09-21T07:11:17;8.73;;;2.50;;
71038;SDS011;58692;43.212;27.908;2022-09-21T07:13:43;6.97;;;2.40;;
71038;SDS011;58692;43.212;27.908;2022-09-21T07:16:09;6.75;;;2.28;;
71038;SDS011;58692;43.212;27.908;2022-09-21T07:18:36;6.00;;;2.00;;
71038;SDS011;58692;43.212;27.908;2022-09-21T07:21:04;4.60;;;2.00;;
71038;SDS011;58692;43.212;27.908;2022-09-21T07:23:31;3.47;;;1.90;;
71038;SDS011;58692;43.212;27.908;2022-09-21T07:26:01;5.38;;;2.10;;
71038;SDS011;58692;43.212;27.908;2022-09-21T07:28:29;3.58;;;1.95;;
71038;SDS011;58692;43.212;27.908;2022-09-21T07:30:55;5.70;;;2.10;;
71038;SDS011;58692;43.212;27.908;2022-09-21T07:33:22;5.65;;;2.22;;
71038;SDS011;58692;43.212;27.908;2022-09-21T07:35:52;3.95;;;2.00;;
71038;SDS011;58692;43.212;27.908;2022-09-21T07:38:20;4.43;;;1.80;;
71038;SDS011;58692;43.212;27.908;2022-09-21T07:40:47;3.53;;;2.10;;
71038;SDS011;58692;43.212;27.908;2022-09-21T07:43:13;6.97;;;2.00;;
71038;SDS011;58692;43.212;27.908;2022-09-21T07:45:42;3.50;;;1.90;;
71038;SDS011;58692;43.212;27.908;2022-09-21T07:48:08;4.27;;;2.20;;
71038;SDS011;58692;43.212;27.908;2022-09-21T07:50:34;4.23;;;2.00;;
71038;SDS011;58692;43.212;27.908;2022-09-21T07:53:01;5.03;;;2.10;;
71038;SDS011;58692;43.212;27.908;2022-09-21T07:55:27;4.78;;;1.98;;
71038;SDS011;58692;43.212;27.908;2022-09-21T07:57:53;4.53;;;2.20;;
71038;SDS011;58692;43.212;27.908;2022-09-21T08:00:34;9.43;;;2.50;;
71038;SDS011;58692;43.212;27.908;2022-09-21T08:03:01;6.47;;;2.10;;
71038;SDS011;58692;43.212;27.908;2022-09-21T08:05:26;7.10;;;2.20;;
71038;SDS011;58692;43.212;27.908;2022-09-21T08:08:12;7.55;;;3.10;;
71038;SDS011;58692;43.212;27.908;2022-09-21T08:10:39;7.07;;;2.40;;
71038;SDS011;58692;43.212;27.908;2022-09-21T08:13:05;4.53;;;1.90;;
71038;SDS011;58692;43.212;27.908;2022-09-21T08:15:30;6.10;;;2.50;;
71038;SDS011;58692;43.212;27.908;2022-09-21T08:17:56;3.42;;;2.00;;
71038;SDS011;58692;43.212;27.908;2022-09-21T08:20:23;7.57;;;2.40;;
71038;SDS011;58692;43.212;27.908;2022-09-21T08:22:51;4.35;;;1.80;;
71038;SDS011;58692;43.212;27.908;2022-09-21T08:25:20;5.93;;;2.20;;
71038;SDS011;58692;43.212;27.908;2022-09-21T08:27:46;6.78;;;2.50;;
71038;SDS011;58692;43.212;27.908;2022-09-21T08:30:13;6.03;;;2.10;;
71038;SDS011;58692;43.212;27.908;2022-09-21T08:32:39;2.67;;;1.70;;
71038;SDS011;58692;43.212;27.908;2022-09-21T08:35:06;7.20;;;2.20;;
71038;SDS011;58692;43.212;27.908;2022-09-21T08:37:32;5.70;;;2.00;;
71038;SDS011;58692;43.212;27.908;2022-09-21T08:40:00;3.95;;;1.80;;
71038;SDS011;58692;43.212;27.908;2022-09-21T08:42:38;3.23;;;1.73;;
71038;SDS011;58692;43.212;27.908;2022-09-21T08:45:17;3.55;;;1.70;;
71038;SDS011;58692;43.212;27.908;2022-09-21T08:47:46;3.00;;;1.70;;
71038;SDS011;58692;43.212;27.908;2022-09-21T08:50:22;3.72;;;2.08;;
71038;SDS011;58692;43.212;27.908;2022-09-21T08:52:57;7.43;;;2.38;;
71038;SDS011;58692;43.212;27.908;2022-09-21T08:55:31;4.30;;;1.90;;
71038;SDS011;58692;43.212;27.908;2022-09-21T08:57:57;7.07;;;2.33;;
71038;SDS011;58692;43.212;27.908;2022-09-21T09:00:24;6.80;;;1.90;;
71038;SDS011;58692;43.212;27.908;2022-09-21T09:02:59;2.67;;;1.70;;
71038;SDS011;58692;43.212;27.908;2022-09-21T09:14:27;2.93;;;1.60;;
71038;SDS011;58692;43.212;27.908;2022-09-21T09:22:20;3.38;;;1.63;;
71038;SDS011;58692;43.212;27.908;2022-09-21T09:24:51;2.83;;;1.55;;
71038;SDS011;58692;43.212;27.908;2022-09-21T09:30:18;6.90;;;1.70;;
71038;SDS011;58692;43.212;27.908;2022-09-21T09:35:45;4.85;;;1.63;;
71038;SDS011;58692;43.212;27.908;2022-09-21T09:38:17;3.85;;;1.40;;
71038;SDS011;58692;43.212;27.908;2022-09-21T09:43:50;3.45;;;1.45;;
71038;SDS011;58692;43.212;27.908;2022-09-21T09:49:39;6.57;;;1.77;;
71038;SDS011;58692;43.212;27.908;2022-09-21T09:52:35;6.53;;;1.77;;
71038;SDS011;58692;43.212;27.908;2022-09-21T09:55:24;6.47;;;2.07;;
71038;SDS011;58692;43.212;27.908;2022-09-21T09:57:57;6.72;;;2.00;;
71038;SDS011;58692;43.212;27.908;2022-09-21T10:03:43;3.78;;;1.67;;
71038;SDS011;58692;43.212;27.908;2022-09-21T10:06:32;8.57;;;2.15;;
71038;SDS011;58692;43.212;27.908;2022-09-21T10:11:50;4.05;;;1.90;;
71038;SDS011;58692;43.212;27.908;2022-09-21T10:14:19;2.33;;;1.50;;
71038;SDS011;58692;43.212;27.908;2022-09-21T10:16:49;3.45;;;1.63;;
71038;SDS011;58692;43.212;27.908;2022-09-21T10:19:22;5.88;;;1.60;;
71038;SDS011;58692;43.212;27.908;2022-09-21T10:21:54;5.23;;;1.73;;
71038;SDS011;58692;43.212;27.908;2022-09-21T10:24:30;3.58;;;1.60;;
71038;SDS011;58692;43.212;27.908;2022-09-21T10:27:13;3.80;;;1.40;;
71038;SDS011;58692;43.212;27.908;2022-09-21T10:30:00;6.35;;;1.75;;
71038;SDS011;58692;43.212;27.908;2022-09-21T10:32:27;3.63;;;1.50;;
71038;SDS011;58692;43.212;27.908;2022-09-21T10:37:35;4.40;;;1.70;;
71038;SDS011;58692;43.212;27.908;2022-09-21T10:42:55;4.17;;;1.70;;
71038;SDS011;58692;43.212;27.908;2022-09-21T10:45:28;2.65;;;1.35;;
71038;SDS011;58692;43.212;27.908;2022-09-21T10:48:16;6.10;;;2.25;;
71038;SDS011;58692;43.212;27.908;2022-09-21T10:50:47;5.70;;;1.60;;
71038;SDS011;58692;43.212;27.908;2022-09-21T11:01:45;3.15;;;1.45;;
71038;SDS011;58692;43.212;27.908;2022-09-21T11:07:55;3.60;;;1.30;;
71038;SDS011;58692;43.212;27.908;2022-09-21T11:11:00;3.07;;;1.30;;
71038;SDS011;58692;43.212;27.908;2022-09-21T11:16:32;3.83;;;1.60;;
71038;SDS011;58692;43.212;27.908;2022-09-21T11:19:19;5.80;;;1.45;;
71038;SDS011;58692;43.212;27.908;2022-09-21T11:25:30;2.63;;;1.57;;
71038;SDS011;58692;43.212;27.908;2022-09-21T11:28:11;2.20;;;1.30;;
71038;SDS011;58692;43.212;27.908;2022-09-21T11:31:16;2.75;;;1.50;;
71038;SDS011;58692;43.212;27.908;2022-09-21T11:44:25;3.83;;;1.30;;
71038;SDS011;58692;43.212;27.908;2022-09-21T11:50:08;3.75;;;1.40;;
71038;SDS011;58692;43.212;27.908;2022-09-21T11:58:25;10.10;;;2.20;;
71038;SDS011;58692;43.212;27.908;2022-09-21T12:06:39;6.37;;;2.40;;
71038;SDS011;58692;43.212;27.908;2022-09-21T12:12:20;7.07;;;1.88;;
71038;SDS011;58692;43.212;27.908;2022-09-21T12:15:00;5.68;;;1.83;;
71038;SDS011;58692;43.212;27.908;2022-09-21T12:20:09;9.63;;;2.80;;
71038;SDS011;58692;43.212;27.908;2022-09-21T12:22:44;8.75;;;2.88;;
71038;SDS011;58692;43.212;27.908;2022-09-21T12:27:49;8.90;;;3.00;;
71038;SDS011;58692;43.212;27.908;2022-09-21T12:30:19;11.50;;;3.33;;
71038;SDS011;58692;43.212;27.908;2022-09-21T12:35:19;10.30;;;3.60;;
71038;SDS011;58692;43.212;27.908;2022-09-21T12:38:09;8.75;;;2.85;;
71038;SDS011;58692;43.212;27.908;2022-09-21T12:40:42;6.70;;;2.30;;
71038;SDS011;58692;43.212;27.908;2022-09-21T12:46:12;3.30;;;1.63;;
71038;SDS011;58692;43.212;27.908;2022-09-21T12:48:40;3.45;;;1.67;;
71038;SDS011;58692;43.212;27.908;2022-09-21T12:53:56;9.70;;;2.63;;
71038;SDS011;58692;43.212;27.908;2022-09-21T12:56:42;7.10;;;3.00;;
71038;SDS011;58692;43.212;27.908;2022-09-21T13:02:04;4.95;;;2.08;;
71038;SDS011;58692;43.212;27.908;2022-09-21T13:07:22;8.23;;;2.37;;
71038;SDS011;58692;43.212;27.908;2022-09-21T13:09:54;4.93;;;2.00;;
71038;SDS011;58692;43.212;27.908;2022-09-21T13:12:37;6.28;;;2.10;;
71038;SDS011;58692;43.212;27.908;2022-09-21T13:17:57;4.97;;;1.75;;
71038;SDS011;58692;43.212;27.908;2022-09-21T13:20:27;3.78;;;1.70;;
71038;SDS011;58692;43.212;27.908;2022-09-21T13:23:02;4.32;;;1.63;;
71038;SDS011;58692;43.212;27.908;2022-09-21T13:25:29;3.58;;;1.40;;
71038;SDS011;58692;43.212;27.908;2022-09-21T13:30:37;2.90;;;1.58;;
71038;SDS011;58692;43.212;27.908;2022-09-21T13:33:27;3.35;;;1.55;;
71038;SDS011;58692;43.212;27.908;2022-09-21T13:49:15;3.90;;;1.63;;
71038;SDS011;58692;43.212;27.908;2022-09-21T13:51:50;3.05;;;1.25;;
71038;SDS011;58692;43.212;27.908;2022-09-21T13:54:19;2.87;;;1.53;;
71038;SDS011;58692;43.212;27.908;2022-09-21T13:56:56;2.22;;;1.20;;
71038;SDS011;58692;43.212;27.908;2022-09-21T13:59:27;4.32;;;1.30;;
71038;SDS011;58692;43.212;27.908;2022-09-21T14:01:53;2.92;;;1.35;;
71038;SDS011;58692;43.212;27.908;2022-09-21T14:04:28;2.20;;;1.10;;
71038;SDS011;58692;43.212;27.908;2022-09-21T14:06:57;2.37;;;1.30;;
71038;SDS011;58692;43.212;27.908;2022-09-21T14:09:30;4.72;;;1.48;;
71038;SDS011;58692;43.212;27.908;2022-09-21T14:12:05;4.85;;;1.45;;
71038;SDS011;58692;43.212;27.908;2022-09-21T14:14:36;5.20;;;1.70;;
71038;SDS011;58692;43.212;27.908;2022-09-21T14:17:04;5.85;;;1.80;;
71038;SDS011;58692;43.212;27.908;2022-09-21T14:29:47;5.63;;;1.95;;
71038;SDS011;58692;43.212;27.908;2022-09-21T14:32:18;3.37;;;1.60;;
71038;SDS011;58692;43.212;27.908;2022-09-21T14:34:48;7.38;;;2.63;;
71038;SDS011;58692;43.212;27.908;2022-09-21T14:37:25;6.90;;;2.17;;
71038;SDS011;58692;43.212;27.908;2022-09-21T14:39:59;9.68;;;2.45;;
71038;SDS011;58692;43.212;27.908;2022-09-21T14:42:31;4.38;;;1.80;;
71038;SDS011;58692;43.212;27.908;2022-09-21T14:44:57;4.47;;;1.50;;
71038;SDS011;58692;43.212;27.908;2022-09-21T14:47:40;5.80;;;1.70;;
71038;SDS011;58692;43.212;27.908;2022-09-21T14:50:27;4.05;;;1.70;;
71038;SDS011;58692;43.212;27.908;2022-09-21T14:58:52;3.17;;;1.20;;
71038;SDS011;58692;43.212;27.908;2022-09-21T15:01:39;2.65;;;1.20;;
71038;SDS011;58692;43.212;27.908;2022-09-21T15:04:16;7.50;;;1.50;;
71038;SDS011;58692;43.212;27.908;2022-09-21T15:15:28;4.15;;;1.90;;
71038;SDS011;58692;43.212;27.908;2022-09-21T15:18:00;6.00;;;2.00;;
71038;SDS011;58692;43.212;27.908;2022-09-21T15:20:29;4.38;;;1.90;;
71038;SDS011;58692;43.212;27.908;2022-09-21T15:22:56;4.75;;;1.50;;
71038;SDS011;58692;43.212;27.908;2022-09-21T15:25:24;6.23;;;1.80;;
71038;SDS011;58692;43.212;27.908;2022-09-21T15:27:52;4.18;;;1.90;;
71038;SDS011;58692;43.212;27.908;2022-09-21T15:30:21;5.55;;;1.80;;
71038;SDS011;58692;43.212;27.908;2022-09-21T15:32:56;8.25;;;1.70;;
71038;SDS011;58692;43.212;27.908;2022-09-21T15:35:30;8.13;;;3.00;;
71038;SDS011;58692;43.212;27.908;2022-09-21T15:37:58;16.53;;;3.47;;
71038;SDS011;58692;43.212;27.908;2022-09-21T15:40:27;7.55;;;2.95;;
71038;SDS011;58692;43.212;27.908;2022-09-21T15:48:21;5.88;;;2.42;;
71038;SDS011;58692;43.212;27.908;2022-09-21T15:50:49;6.07;;;2.47;;
71038;SDS011;58692;43.212;27.908;2022-09-21T15:53:24;5.43;;;2.20;;
71038;SDS011;58692;43.212;27.908;2022-09-21T15:55:55;4.88;;;1.88;;
71038;SDS011;58692;43.212;27.908;2022-09-21T15:58:28;5.55;;;1.60;;
71038;SDS011;58692;43.212;27.908;2022-09-21T16:01:01;4.53;;;1.95;;
71038;SDS011;58692;43.212;27.908;2022-09-21T16:03:34;5.27;;;1.93;;
71038;SDS011;58692;43.212;27.908;2022-09-21T16:06:00;4.38;;;1.92;;
71038;SDS011;58692;43.212;27.908;2022-09-21T16:08:56;5.45;;;2.20;;
71038;SDS011;58692;43.212;27.908;2022-09-21T16:17:03;7.03;;;2.25;;
71038;SDS011;58692;43.212;27.908;2022-09-21T16:22:17;5.40;;;2.20;;
71038;SDS011;58692;43.212;27.908;2022-09-21T16:24:49;5.40;;;2.50;;
71038;SDS011;58692;43.212;27.908;2022-09-21T16:27:17;5.93;;;2.10;;
71038;SDS011;58692;43.212;27.908;2022-09-21T16:29:45;6.45;;;2.50;;
71038;SDS011;58692;43.212;27.908;2022-09-21T16:32:19;7.55;;;2.22;;
71038;SDS011;58692;43.212;27.908;2022-09-21T16:34:50;8.80;;;2.53;;
71038;SDS011;58692;43.212;27.908;2022-09-21T16:39:48;5.15;;;2.10;;
71038;SDS011;58692;43.212;27.908;2022-09-21T16:42:14;4.05;;;1.83;;
71038;SDS011;58692;43.212;27.908;2022-09-21T16:44:40;8.57;;;2.80;;
71038;SDS011;58692;43.212;27.908;2022-09-21T16:49:51;6.28;;;2.05;;
71038;SDS011;58692;43.212;27.908;2022-09-21T16:52:19;5.82;;;1.80;;
71038;SDS011;58692;43.212;27.908;2022-09-21T16:54:47;5.07;;;1.85;;
71038;SDS011;58692;43.212;27.908;2022-09-21T16:57:13;9.43;;;2.13;;
71038;SDS011;58692;43.212;27.908;2022-09-21T16:59:39;7.83;;;2.33;;
71038;SDS011;58692;43.212;27.908;2022-09-21T17:02:05;4.38;;;1.98;;
71038;SDS011;58692;43.212;27.908;2022-09-21T17:04:33;8.18;;;3.00;;
71038;SDS011;58692;43.212;27.908;2022-09-21T17:06:59;7.57;;;2.57;;
71038;SDS011;58692;43.212;27.908;2022-09-21T17:09:35;5.90;;;2.10;;
71038;SDS011;58692;43.212;27.908;2022-09-21T17:12:03;5.30;;;2.13;;
71038;SDS011;58692;43.212;27.908;2022-09-21T17:14:32;6.15;;;2.33;;
71038;SDS011;58692;43.212;27.908;2022-09-21T17:17:02;6.97;;;2.22;;
71038;SDS011;58692;43.212;27.908;2022-09-21T17:19:35;7.47;;;2.23;;
71038;SDS011;58692;43.212;27.908;2022-09-21T17:22:01;7.57;;;2.30;;
71038;SDS011;58692;43.212;27.908;2022-09-21T17:24:28;8.52;;;2.22;;
71038;SDS011;58692;43.212;27.908;2022-09-21T17:26:55;5.97;;;2.38;;
71038;SDS011;58692;43.212;27.908;2022-09-21T17:29:23;6.90;;;2.00;;
71038;SDS011;58692;43.212;27.908;2022-09-21T17:31:54;6.63;;;2.35;;
71038;SDS011;58692;43.212;27.908;2022-09-21T17:34:23;5.97;;;1.52;;
71038;SDS011;58692;43.212;27.908;2022-09-21T17:36:51;4.13;;;1.48;;
71038;SDS011;58692;43.212;27.908;2022-09-21T17:39:18;4.25;;;1.45;;
71038;SDS011;58692;43.212;27.908;2022-09-21T17:49:09;3.87;;;1.83;;
71038;SDS011;58692;43.212;27.908;2022-09-21T17:51:35;6.22;;;1.77;;
71038;SDS011;58692;43.212;27.908;2022-09-21T17:54:16;6.20;;;1.90;;
71038;SDS011;58692;43.212;27.908;2022-09-21T17:59:19;5.93;;;2.08;;
71038;SDS011;58692;43.212;27.908;2022-09-21T18:01:50;6.93;;;2.80;;
71038;SDS011;58692;43.212;27.908;2022-09-21T18:04:16;7.88;;;3.33;;
71038;SDS011;58692;43.212;27.908;2022-09-21T18:06:43;6.67;;;2.50;;
71038;SDS011;58692;43.212;27.908;2022-09-21T18:09:08;6.82;;;2.45;;
71038;SDS011;58692;43.212;27.908;2022-09-21T18:14:27;5.45;;;1.90;;
71038;SDS011;58692;43.212;27.908;2022-09-21T18:17:00;3.73;;;1.80;;
71038;SDS011;58692;43.212;27.908;2022-09-21T18:24:49;3.47;;;1.50;;
71038;SDS011;58692;43.212;27.908;2022-09-21T18:27:16;5.28;;;1.70;;
71038;SDS011;58692;43.212;27.908;2022-09-21T18:29:42;6.00;;;2.07;;
71038;SDS011;58692;43.212;27.908;2022-09-21T18:40:18;7.50;;;2.50;;
71038;SDS011;58692;43.212;27.908;2022-09-21T18:45:41;13.32;;;7.18;;